createdAt,value
2019-01-23T00:02:19.056Z,60.10
2019-01-23T00:05:23.928Z,60.00
2019-01-23T00:08:28.771Z,60.20
2019-01-23T00:11:33.677Z,60.40
2019-01-23T00:14:38.525Z,60.70
2019-01-23T00:17:43.382Z,60.90
2019-01-23T00:20:48.228Z,60.90
2019-01-23T00:23:53.148Z,60.90
2019-01-23T00:26:58.102Z,60.80
2019-01-23T00:30:03.237Z,61.00
2019-01-23T00:33:08.170Z,61.10
2019-01-23T00:36:13.107Z,60.60
2019-01-23T00:39:17.943Z,60.80
2019-01-23T00:42:22.867Z,61.50
2019-01-23T00:45:27.820Z,60.50
2019-01-23T00:48:32.700Z,60.50
2019-01-23T00:51:37.624Z,60.60
2019-01-23T00:54:42.472Z,60.80
2019-01-23T00:57:47.306Z,60.60
2019-01-23T01:00:52.201Z,60.60
2019-01-23T01:03:57.133Z,60.90
2019-01-23T01:07:02.091Z,60.80
2019-01-23T01:10:10.486Z,61.30
2019-01-23T01:13:15.445Z,61.00
2019-01-23T01:16:20.336Z,61.10
2019-01-23T01:19:25.216Z,60.80
2019-01-23T01:22:30.103Z,61.20
2019-01-23T01:25:34.984Z,61.10
2019-01-23T01:28:40.099Z,60.60
2019-01-23T01:31:44.968Z,60.80
2019-01-23T01:34:49.929Z,60.80
2019-01-23T01:37:54.830Z,60.80
2019-01-23T01:40:59.711Z,60.90
2019-01-23T01:44:04.881Z,60.80
2019-01-23T01:47:09.727Z,61.00
2019-01-23T01:50:17.121Z,61.00
2019-01-23T01:53:21.974Z,61.00
2019-01-23T01:56:27.836Z,61.10
2019-01-23T01:59:32.682Z,61.10
2019-01-23T02:02:37.556Z,60.80
2019-01-23T02:45:59.053Z,60.30
2019-01-23T02:49:03.999Z,60.10
2019-01-23T02:52:08.861Z,60.30
2019-01-23T02:55:14.332Z,60.00
2019-01-23T02:58:19.243Z,60.60
2019-01-23T03:01:24.145Z,60.20
2019-01-23T03:04:29.125Z,60.40
2019-01-23T03:07:34.100Z,60.40
2019-01-23T03:10:38.954Z,60.70
2019-01-23T03:13:43.795Z,60.50
2019-01-23T03:16:48.634Z,60.60
2019-01-23T03:19:53.646Z,60.30
2019-01-23T03:22:58.515Z,59.70
2019-01-23T03:26:04.504Z,59.70
2019-01-23T03:29:09.408Z,59.60
2019-01-23T03:32:14.306Z,59.50
2019-01-23T03:35:19.273Z,59.90
2019-01-23T03:38:24.149Z,59.40
2019-01-23T03:41:29.022Z,59.80
2019-01-23T03:44:33.892Z,60.00
2019-01-23T03:47:38.878Z,59.40
2019-01-23T03:50:43.751Z,60.10
2019-01-23T03:53:48.618Z,59.20
2019-01-23T03:56:53.489Z,59.30
2019-01-23T03:59:58.355Z,59.30
2019-01-23T04:03:04.345Z,58.40
2019-01-23T04:06:09.227Z,58.30
2019-01-23T04:09:14.202Z,58.50
2019-01-23T04:12:19.069Z,59.00
2019-01-23T04:15:23.924Z,58.90
2019-01-23T04:18:28.762Z,59.10
2019-01-23T04:21:33.602Z,59.60
2019-01-23T04:24:38.522Z,58.90
2019-01-23T04:27:43.653Z,58.70
2019-01-23T04:30:48.563Z,58.40
2019-01-23T04:33:53.433Z,57.90
2019-01-23T04:36:58.340Z,58.30
2019-01-23T04:40:04.725Z,58.50
2019-01-23T04:43:09.555Z,58.40
2019-01-23T04:46:14.497Z,59.10
2019-01-23T04:49:19.384Z,58.20
2019-01-23T04:52:35.115Z,58.10
2019-01-23T04:55:40.418Z,57.60
2019-01-23T04:58:45.248Z,57.90
2019-01-23T05:01:50.121Z,57.90
2019-01-23T05:04:55.021Z,57.50
2019-01-23T05:07:59.954Z,57.30
2019-01-23T05:11:04.818Z,57.70
2019-01-23T05:14:09.703Z,57.20
2019-01-23T05:17:14.568Z,57.70
2019-01-23T05:20:19.427Z,58.10
2019-01-23T05:23:24.337Z,58.00
2019-01-23T05:26:29.230Z,57.80
2019-01-23T05:29:34.212Z,58.00
2019-01-23T05:32:39.138Z,58.30
2019-01-23T05:35:44.023Z,58.30
2019-01-23T05:38:48.862Z,58.10
2019-01-23T05:41:53.788Z,57.80
2019-01-23T05:44:58.674Z,57.80
2019-01-23T05:48:03.542Z,57.40
2019-01-23T05:51:08.417Z,57.20
2019-01-23T05:54:13.322Z,57.40
2019-01-23T05:57:19.117Z,57.60
2019-01-23T06:00:23.949Z,58.10
2019-01-23T06:03:28.825Z,58.30
2019-01-23T06:06:33.685Z,57.90
2019-01-23T06:09:38.564Z,58.00
2019-01-23T06:12:43.420Z,58.10
2019-01-23T06:15:48.268Z,58.00
2019-01-23T06:18:53.187Z,58.50
2019-01-23T06:21:58.118Z,58.00
2019-01-23T06:25:03.061Z,58.50
2019-01-23T06:28:07.901Z,57.70
2019-01-23T06:31:13.328Z,57.80
2019-01-23T06:34:18.233Z,57.80
2019-01-23T06:37:23.068Z,57.80
2019-01-23T06:40:27.937Z,57.60
2019-01-23T06:43:32.785Z,58.00
2019-01-23T06:46:37.656Z,57.90
2019-01-23T06:49:42.488Z,58.30
2019-01-23T06:52:47.447Z,58.30
2019-01-23T06:55:52.334Z,58.20
2019-01-23T06:58:57.191Z,58.00
2019-01-23T07:02:02.104Z,58.60
2019-01-23T07:05:08.698Z,58.80
2019-01-23T07:08:13.548Z,58.40
2019-01-23T07:11:18.370Z,58.30
2019-01-23T07:14:23.246Z,57.80
2019-01-23T07:17:28.139Z,57.50
2019-01-23T07:20:33.079Z,58.90
2019-01-23T07:23:37.950Z,58.30
2019-01-23T07:26:42.778Z,58.30
2019-01-23T07:29:47.698Z,57.90
2019-01-23T07:32:52.584Z,58.00
2019-01-23T07:35:57.784Z,57.80
2019-01-23T07:39:04.388Z,58.20
2019-01-23T07:42:09.319Z,58.10
2019-01-23T07:45:17.523Z,58.70
2019-01-23T07:48:22.357Z,58.80
2019-01-23T07:51:27.232Z,59.00
2019-01-23T07:54:32.090Z,58.90
2019-01-23T07:57:36.982Z,58.40
2019-01-23T08:00:42.930Z,58.10
2019-01-23T08:03:47.795Z,58.10
2019-01-23T08:06:52.633Z,58.20
2019-01-23T08:09:57.483Z,58.50
2019-01-23T08:13:02.323Z,58.50
2019-01-23T08:16:07.174Z,58.60
2019-01-23T08:19:12.008Z,57.90
2019-01-23T08:22:16.891Z,58.20
2019-01-23T08:25:21.734Z,57.70
2019-01-23T08:28:26.617Z,57.50
2019-01-23T08:31:31.461Z,58.00
2019-01-23T08:34:36.316Z,58.40
2019-01-23T08:37:41.134Z,57.70
2019-01-23T08:40:45.999Z,57.80
2019-01-23T08:43:50.844Z,57.40
2019-01-23T08:46:55.706Z,56.80
2019-01-23T08:50:01.516Z,56.20
2019-01-23T08:53:06.682Z,56.10
2019-01-23T08:56:11.735Z,56.50
2019-01-23T08:59:16.658Z,56.30
2019-01-23T09:02:21.575Z,55.10
2019-01-23T09:05:26.843Z,55.60
2019-01-23T09:08:37.560Z,55.40
2019-01-23T09:11:38.394Z,55.20
2019-01-23T09:14:43.321Z,55.20
2019-01-23T09:17:48.269Z,54.70
2019-01-23T09:20:53.125Z,54.70
2019-01-23T09:23:58.094Z,54.80
2019-01-23T09:27:03.023Z,55.20
2019-01-23T09:30:22.895Z,55.00
2019-01-23T09:33:33.547Z,55.40
2019-01-23T09:37:02.586Z,55.70
2019-01-23T09:40:10.685Z,55.50
2019-01-23T09:43:21.661Z,54.70
2019-01-23T09:46:35.515Z,53.50
2019-01-23T09:49:52.109Z,52.40
2019-01-23T09:53:00.042Z,52.30
2019-01-23T09:56:04.973Z,53.10
2019-01-23T09:59:09.947Z,53.60
2019-01-23T10:02:14.819Z,53.80
2019-01-23T10:05:19.692Z,54.20
2019-01-23T10:08:24.602Z,54.10
2019-01-23T10:11:29.456Z,53.90
2019-01-23T10:14:34.309Z,53.10
2019-01-23T10:17:39.140Z,53.40
2019-01-23T10:20:43.994Z,52.80
2019-01-23T10:23:48.848Z,51.40
2019-01-23T10:26:53.706Z,50.80
2019-01-23T10:29:58.648Z,51.00
2019-01-23T10:33:03.493Z,50.20
2019-01-23T10:36:08.518Z,50.00
2019-01-23T10:39:13.394Z,49.00
2019-01-23T10:42:18.439Z,49.30
2019-01-23T10:45:23.442Z,49.70
2019-01-23T10:48:28.394Z,49.70
2019-01-23T10:51:33.351Z,50.00
2019-01-23T10:54:38.250Z,48.70
2019-01-23T10:57:43.513Z,47.90
2019-01-23T11:00:48.432Z,47.70
2019-01-23T11:03:53.302Z,49.00
2019-01-23T11:06:58.187Z,49.30
2019-01-23T11:10:07.431Z,49.10
2019-01-23T11:13:12.850Z,48.80
2019-01-23T11:16:17.757Z,49.30
2019-01-23T11:19:23.514Z,49.60
2019-01-23T11:22:28.376Z,48.10
2019-01-23T11:25:33.224Z,48.50
2019-01-23T11:28:38.101Z,48.40
2019-01-23T11:31:42.949Z,48.50
2019-01-23T11:34:47.881Z,49.20
2019-01-23T11:37:53.744Z,49.00
2019-01-23T11:40:58.601Z,48.60
2019-01-23T11:44:03.848Z,49.60
2019-01-23T11:47:08.693Z,50.30
2019-01-23T11:50:21.792Z,49.50
2019-01-23T11:53:22.388Z,49.50
2019-01-23T11:56:28.158Z,50.00
2019-01-23T11:59:33.047Z,49.50
2019-01-23T12:02:38.913Z,48.60
2019-01-23T12:05:43.833Z,48.60
2019-01-23T12:08:48.721Z,49.50
2019-01-23T12:11:54.478Z,49.20
2019-01-23T12:14:59.382Z,48.70
2019-01-23T12:18:04.285Z,48.60
2019-01-23T12:21:09.174Z,49.70
2019-01-23T12:24:14.098Z,50.00
2019-01-23T12:27:19.018Z,49.80
2019-01-23T12:30:29.841Z,49.80
2019-01-23T12:33:34.834Z,50.10
2019-01-23T12:36:39.722Z,50.90
2019-01-23T12:39:44.598Z,50.70
2019-01-23T12:42:49.653Z,49.70
2019-01-23T12:45:55.557Z,50.10
2019-01-23T12:49:00.638Z,50.30
2019-01-23T12:52:05.514Z,50.50
2019-01-23T12:55:10.629Z,50.10
2019-01-23T12:58:15.566Z,51.00
2019-01-23T13:01:20.731Z,50.70
2019-01-23T13:04:25.660Z,50.50
2019-01-23T13:07:33.465Z,51.00
2019-01-23T13:10:38.213Z,49.70
2019-01-23T13:13:43.097Z,49.40
2019-01-23T13:16:47.972Z,49.90
2019-01-23T13:19:53.026Z,49.50
2019-01-23T13:22:57.970Z,49.50
2019-01-23T13:26:02.853Z,49.70
2019-01-23T13:29:07.705Z,49.20
2019-01-23T13:32:12.604Z,49.10
2019-01-23T13:35:26.478Z,49.30
2019-01-23T13:38:31.397Z,49.60
2019-01-23T13:41:36.247Z,48.70
2019-01-23T13:44:41.085Z,49.50
2019-01-23T13:47:46.032Z,49.40
2019-01-23T13:50:51.005Z,49.80
2019-01-23T13:53:55.850Z,48.20
2019-01-23T13:57:00.695Z,49.10
2019-01-23T14:00:14.263Z,49.60
2019-01-23T14:03:19.161Z,50.00
2019-01-23T14:06:23.999Z,50.20
2019-01-23T14:09:28.944Z,50.00
2019-01-23T14:12:33.893Z,49.90
2019-01-23T14:15:39.889Z,49.90
2019-01-23T14:18:44.841Z,50.10
2019-01-23T14:21:49.824Z,50.40
2019-01-23T14:24:54.734Z,50.60
2019-01-23T14:27:59.926Z,49.10
2019-01-23T14:31:04.988Z,50.50
2019-01-23T14:34:09.827Z,50.40
2019-01-23T14:37:14.666Z,50.70
2019-01-23T14:40:20.473Z,50.90
2019-01-23T14:43:26.301Z,50.40
2019-01-23T14:46:31.170Z,51.00
2019-01-23T14:49:36.114Z,50.90
2019-01-23T14:52:41.264Z,50.50
2019-01-23T14:55:47.240Z,50.80
2019-01-23T14:58:52.090Z,50.90
2019-01-23T15:01:56.929Z,51.30
2019-01-23T15:05:01.769Z,51.70
2019-01-23T15:08:06.638Z,51.80
2019-01-23T15:11:11.496Z,52.20
2019-01-23T15:14:16.483Z,51.90
2019-01-23T15:17:21.344Z,52.10
2019-01-23T15:20:29.404Z,52.20
2019-01-23T15:23:34.334Z,53.00
2019-01-23T15:26:39.162Z,52.90
2019-01-23T15:29:44.035Z,52.80
2019-01-23T15:32:49.133Z,52.60
2019-01-23T15:35:54.061Z,52.60
2019-01-23T15:38:59.188Z,52.40
2019-01-23T15:42:04.150Z,52.30
2019-01-23T15:45:10.921Z,51.90
2019-01-23T15:48:16.763Z,52.00
2019-01-23T15:51:21.657Z,52.00
2019-01-23T15:54:26.501Z,52.00
2019-01-23T15:57:31.333Z,52.20
2019-01-23T16:00:36.168Z,52.00
2019-01-23T16:03:41.040Z,52.20
2019-01-23T16:06:45.901Z,52.10
2019-01-23T16:09:51.102Z,52.30
2019-01-23T16:12:55.947Z,52.50
2019-01-23T16:16:00.823Z,52.30
2019-01-23T16:19:05.874Z,51.90
2019-01-23T16:22:10.762Z,52.40
2019-01-23T16:25:17.008Z,52.60
2019-01-23T16:28:21.937Z,52.60
2019-01-23T16:31:27.102Z,52.20
2019-01-23T16:34:32.001Z,52.30
2019-01-23T16:37:36.895Z,52.60
2019-01-23T16:40:42.749Z,52.80
2019-01-23T16:43:47.682Z,52.40
2019-01-23T16:46:52.549Z,52.00
2019-01-23T16:49:57.383Z,52.20
2019-01-23T16:53:02.269Z,52.20
2019-01-23T16:56:07.196Z,50.80
2019-01-23T16:59:12.068Z,52.30
2019-01-23T17:02:16.989Z,52.20
2019-01-23T17:05:24.492Z,51.80
2019-01-23T17:08:29.430Z,52.10
2019-01-23T17:11:34.269Z,51.80
2019-01-23T17:14:39.160Z,51.60
2019-01-23T17:17:45.393Z,51.70
2019-01-23T17:20:50.277Z,51.50
2019-01-23T17:23:55.139Z,51.30
2019-01-23T17:27:00.980Z,51.60
2019-01-23T17:30:12.470Z,51.40
2019-01-23T17:33:17.606Z,51.20
2019-01-23T17:36:22.472Z,51.80
2019-01-23T17:39:27.898Z,51.30
2019-01-23T17:42:33.927Z,51.60
2019-01-23T17:45:39.914Z,51.60
2019-01-23T17:48:44.863Z,51.70
2019-01-23T17:51:49.726Z,52.10
2019-01-23T17:54:54.562Z,51.30
2019-01-23T17:57:59.855Z,51.20
2019-01-23T18:01:05.222Z,51.30
2019-01-23T18:04:11.676Z,51.20
2019-01-23T18:07:16.598Z,51.60
2019-01-23T18:10:21.694Z,51.50
2019-01-23T18:13:26.576Z,51.00
2019-01-23T18:16:31.514Z,51.30
2019-01-23T18:19:36.453Z,51.40
2019-01-23T18:22:41.399Z,51.00
2019-01-23T18:25:46.565Z,51.00
2019-01-23T18:28:51.390Z,51.10
2019-01-23T18:31:56.311Z,50.60
2019-01-23T18:35:16.094Z,51.70
2019-01-23T18:38:46.798Z,52.00
2019-01-23T18:41:54.773Z,51.90
2019-01-23T18:45:09.114Z,51.00
2019-01-23T18:48:29.068Z,51.50
2019-01-23T18:51:35.158Z,51.30
2019-01-23T18:54:41.703Z,52.00
2019-01-23T18:57:46.571Z,52.20
2019-01-23T19:00:51.446Z,51.60
2019-01-23T19:03:56.348Z,51.90
2019-01-23T19:07:01.271Z,51.80
2019-01-23T19:10:09.181Z,52.40
2019-01-23T19:13:14.017Z,51.20
2019-01-23T19:16:19.897Z,50.90
2019-01-23T19:19:24.731Z,51.20
2019-01-23T19:22:29.618Z,51.90
2019-01-23T19:25:34.554Z,51.30
2019-01-23T19:28:39.448Z,50.60
2019-01-23T19:31:44.440Z,50.90
2019-01-23T19:34:49.293Z,51.30
2019-01-23T19:37:54.175Z,51.20
2019-01-23T19:40:59.006Z,51.20
2019-01-23T19:44:04.970Z,51.20
2019-01-23T19:47:11.850Z,51.40
2019-01-23T19:50:16.776Z,51.40
2019-01-23T19:53:21.752Z,51.80
2019-01-23T19:56:27.204Z,51.60
2019-01-23T19:59:32.293Z,51.00
2019-01-23T20:02:37.126Z,51.00
2019-01-23T20:05:42.018Z,50.00
2019-01-23T20:08:46.904Z,50.40
2019-01-23T20:11:51.827Z,50.50
2019-01-23T20:14:56.758Z,50.50
2019-01-23T20:18:01.622Z,50.80
2019-01-23T20:21:06.549Z,50.50
2019-01-23T20:24:11.420Z,50.80
2019-01-23T20:27:17.733Z,51.10
2019-01-23T20:30:25.645Z,51.00
2019-01-23T20:33:30.514Z,50.80
2019-01-23T20:36:35.529Z,50.90
2019-01-23T20:39:40.610Z,50.60
2019-01-23T20:42:46.982Z,50.60
2019-01-23T20:45:51.829Z,50.40
2019-01-23T20:48:56.706Z,49.90
2019-01-23T20:52:01.577Z,49.90
2019-01-23T20:55:06.817Z,50.50
2019-01-23T20:58:11.722Z,49.90
2019-01-23T21:01:16.554Z,49.90
2019-01-23T21:04:21.448Z,49.30
2019-01-23T21:07:26.474Z,49.50
2019-01-23T21:10:31.339Z,49.60
2019-01-23T21:13:36.203Z,49.90
2019-01-23T21:16:41.051Z,49.40
2019-01-23T21:19:45.949Z,49.00
2019-01-23T21:22:50.801Z,49.30
2019-01-23T21:25:55.668Z,49.00
2019-01-23T21:29:00.599Z,48.30
2019-01-23T21:32:05.530Z,48.60
2019-01-23T21:35:10.938Z,48.30
2019-01-23T21:38:15.768Z,48.40
2019-01-23T21:41:20.638Z,48.60
2019-01-23T21:44:26.409Z,48.20
2019-01-23T21:47:31.329Z,48.90
2019-01-23T21:50:36.214Z,48.40
2019-01-23T21:53:42.031Z,48.30
2019-01-23T21:56:46.932Z,48.60
2019-01-23T21:59:51.838Z,47.70
2019-01-23T22:02:58.529Z,47.80
2019-01-23T22:06:03.454Z,48.10
2019-01-23T22:09:09.207Z,48.20
2019-01-23T22:12:14.057Z,48.00
2019-01-23T22:15:22.106Z,47.60
2019-01-23T22:18:26.946Z,47.50
2019-01-23T22:21:31.834Z,47.30
2019-01-23T22:24:36.772Z,47.30
2019-01-23T22:27:41.689Z,47.70
2019-01-23T22:30:46.530Z,46.90
2019-01-23T22:33:56.150Z,46.90
2019-01-23T22:36:58.009Z,47.00
2019-01-23T22:40:03.080Z,46.20
2019-01-23T22:43:11.264Z,46.20
2019-01-23T22:46:14.563Z,46.30
2019-01-23T22:49:19.489Z,46.70
2019-01-23T22:52:24.355Z,46.70
2019-01-23T22:55:29.338Z,46.40
2019-01-23T22:58:34.194Z,46.10
2019-01-23T23:01:39.030Z,45.90
2019-01-23T23:04:43.920Z,46.40
2019-01-23T23:07:48.788Z,45.70
2019-01-23T23:10:53.776Z,46.10
2019-01-23T23:13:58.712Z,46.20
2019-01-23T23:17:03.598Z,45.60
2019-01-23T23:20:10.778Z,45.30
2019-01-23T23:23:15.730Z,45.00
2019-01-23T23:26:20.578Z,45.40
2019-01-23T23:29:25.413Z,45.50
2019-01-23T23:32:30.467Z,45.10
2019-01-23T23:35:35.316Z,45.40
2019-01-23T23:38:41.074Z,46.10
2019-01-23T23:41:45.971Z,45.60
2019-01-23T23:44:50.904Z,45.40
2019-01-23T23:47:55.810Z,45.30
2019-01-23T23:51:00.650Z,45.60
2019-01-23T23:54:05.698Z,45.20
2019-01-23T23:57:10.630Z,45.10
